createdAt,value
2022-10-21T00:01:07.729Z,14.40
2022-10-21T00:03:36.339Z,12.47
2022-10-21T00:06:05.544Z,12.00
2022-10-21T00:08:35.892Z,14.70
2022-10-21T00:11:07.670Z,12.20
2022-10-21T00:13:38.597Z,12.13
2022-10-21T00:16:09.693Z,14.67
2022-10-21T00:18:39.854Z,13.80
2022-10-21T00:21:09.581Z,12.53
2022-10-21T00:23:38.934Z,14.40
2022-10-21T00:26:07.781Z,13.07
2022-10-21T00:28:36.029Z,13.10
2022-10-21T00:31:07.580Z,13.33
2022-10-21T00:33:35.655Z,12.63
2022-10-21T00:36:06.006Z,11.93
2022-10-21T00:38:36.000Z,12.07
2022-10-21T00:41:05.353Z,13.27
2022-10-21T00:43:33.313Z,10.90
2022-10-21T00:46:04.417Z,11.20
2022-10-21T00:48:37.475Z,10.73
2022-10-21T00:51:09.239Z,11.13
2022-10-21T00:53:43.555Z,11.60
2022-10-21T00:56:18.792Z,11.10
2022-10-21T00:58:48.322Z,12.20
2022-10-21T01:01:19.400Z,12.63
2022-10-21T01:03:50.286Z,13.50
2022-10-21T01:06:22.071Z,10.53
2022-10-21T01:08:50.447Z,12.00
2022-10-21T01:11:21.204Z,15.63
2022-10-21T01:14:24.340Z,12.40
2022-10-21T01:17:20.406Z,12.37
2022-10-21T01:20:33.236Z,12.97
2022-10-21T01:23:34.438Z,12.90
2022-10-21T01:26:31.878Z,13.93
2022-10-21T01:29:22.394Z,15.47
2022-10-21T01:31:59.707Z,17.87
2022-10-21T01:34:34.262Z,14.37
2022-10-21T01:37:11.604Z,16.97
2022-10-21T01:39:47.199Z,20.17
2022-10-21T01:42:21.647Z,19.27
2022-10-21T01:44:55.856Z,16.20
2022-10-21T01:47:32.283Z,17.83
2022-10-21T01:50:06.661Z,16.63
2022-10-21T01:52:34.965Z,19.37
2022-10-21T01:55:09.532Z,17.00
2022-10-21T01:57:41.471Z,17.57
2022-10-21T02:00:11.267Z,15.67
2022-10-21T02:02:45.340Z,16.03
2022-10-21T02:05:23.600Z,17.43
2022-10-21T02:07:51.730Z,18.17
2022-10-21T02:10:21.414Z,17.50
2022-10-21T02:12:52.408Z,17.83
2022-10-21T02:15:22.757Z,16.90
2022-10-21T02:17:58.505Z,16.30
2022-10-21T02:20:30.546Z,15.40
2022-10-21T02:22:58.664Z,14.27
2022-10-21T02:25:30.855Z,14.47
2022-10-21T02:27:58.996Z,15.23
2022-10-21T02:30:28.476Z,13.83
2022-10-21T02:33:04.546Z,16.73
2022-10-21T02:35:39.446Z,15.20
2022-10-21T02:38:15.205Z,16.83
2022-10-21T02:40:46.763Z,15.10
2022-10-21T02:43:20.087Z,14.63
2022-10-21T02:45:50.459Z,14.70
2022-10-21T02:48:19.749Z,13.00
2022-10-21T02:50:47.765Z,14.17
2022-10-21T02:53:15.810Z,13.33
2022-10-21T02:55:43.808Z,11.37
2022-10-21T02:58:12.677Z,13.83
2022-10-21T03:00:40.765Z,12.27
2022-10-21T03:03:08.816Z,11.57
2022-10-21T03:05:38.119Z,12.57
2022-10-21T03:08:07.076Z,10.90
2022-10-21T03:10:35.088Z,10.20
2022-10-21T03:13:03.215Z,11.13
2022-10-21T03:15:31.412Z,11.33
2022-10-21T03:17:59.366Z,9.63
2022-10-21T03:20:27.426Z,10.03
2022-10-21T03:22:56.759Z,10.67
2022-10-21T03:25:24.732Z,9.10
2022-10-21T03:27:52.739Z,10.13
2022-10-21T03:30:20.722Z,9.47
2022-10-21T03:32:48.695Z,8.90
2022-10-21T03:35:16.911Z,9.20
2022-10-21T03:37:44.941Z,8.50
2022-10-21T03:40:14.416Z,9.20
2022-10-21T03:42:42.386Z,10.00
2022-10-21T03:45:11.669Z,9.23
2022-10-21T03:47:39.784Z,10.87
2022-10-21T03:50:12.121Z,11.77
2022-10-21T03:52:43.389Z,12.07
2022-10-21T03:55:11.635Z,9.97
2022-10-21T03:57:41.464Z,10.70
2022-10-21T04:02:44.042Z,14.63
2022-10-21T04:05:13.215Z,11.37
2022-10-21T04:07:41.618Z,10.50
2022-10-21T04:10:10.928Z,12.70
2022-10-21T04:12:40.655Z,16.90
2022-10-21T04:15:13.628Z,13.10
2022-10-21T04:17:42.098Z,15.60
2022-10-21T04:20:12.781Z,14.90
2022-10-21T04:22:41.076Z,14.37
2022-10-21T04:25:09.854Z,14.57
2022-10-21T04:27:37.901Z,15.00
2022-10-21T04:30:09.787Z,17.93
2022-10-21T04:32:38.125Z,16.50
2022-10-21T04:35:07.280Z,14.60
2022-10-21T04:37:35.318Z,15.93
2022-10-21T04:40:03.315Z,14.50
2022-10-21T04:42:31.296Z,15.00
2022-10-21T04:44:59.262Z,18.17
2022-10-21T04:47:28.836Z,14.03
2022-10-21T04:49:56.992Z,15.77
2022-10-21T04:52:25.023Z,16.37
2022-10-21T04:54:52.990Z,15.50
2022-10-21T04:57:21.221Z,16.00
2022-10-21T04:59:49.327Z,15.93
2022-10-21T05:02:19.379Z,15.00
2022-10-21T05:04:51.192Z,15.40
2022-10-21T05:07:19.181Z,12.97
2022-10-21T05:09:47.215Z,13.73
2022-10-21T05:12:15.802Z,14.30
2022-10-21T05:14:43.747Z,14.50
2022-10-21T05:17:11.708Z,14.20
2022-10-21T05:19:39.722Z,12.90
2022-10-21T05:22:09.020Z,12.60
2022-10-21T05:24:39.106Z,13.80
2022-10-21T05:27:07.067Z,13.97
2022-10-21T05:29:35.093Z,13.53
2022-10-21T05:32:03.070Z,13.17
2022-10-21T05:34:31.065Z,14.10
2022-10-21T05:36:59.609Z,14.30
2022-10-21T05:39:29.253Z,13.70
2022-10-21T05:41:57.243Z,14.03
2022-10-21T05:44:25.282Z,15.00
2022-10-21T05:46:53.260Z,14.90
2022-10-21T05:49:21.253Z,16.33
2022-10-21T05:51:49.268Z,14.40
2022-10-21T05:54:17.649Z,15.47
2022-10-21T05:56:48.068Z,12.67
2022-10-21T05:59:16.635Z,14.73
2022-10-21T06:01:44.578Z,14.07
2022-10-21T06:04:12.552Z,12.17
2022-10-21T06:06:40.587Z,14.00
2022-10-21T06:09:08.681Z,15.37
2022-10-21T06:11:36.682Z,14.97
2022-10-21T06:14:05.983Z,12.80
2022-10-21T06:16:35.192Z,14.53
2022-10-21T06:19:03.329Z,15.33
2022-10-21T06:21:31.448Z,16.90
2022-10-21T06:23:59.482Z,15.30
2022-10-21T06:26:27.476Z,15.50
2022-10-21T06:28:55.429Z,15.40
2022-10-21T06:31:24.732Z,16.20
2022-10-21T06:33:55.111Z,16.67
2022-10-21T06:36:23.473Z,17.50
2022-10-21T06:38:51.534Z,18.27
2022-10-21T06:41:19.686Z,15.47
2022-10-21T06:43:47.711Z,17.80
2022-10-21T06:46:16.603Z,14.93
2022-10-21T06:48:45.978Z,13.10
2022-10-21T06:51:17.121Z,12.00
2022-10-21T06:53:46.331Z,11.70
2022-10-21T06:56:17.322Z,14.30
2022-10-21T06:58:48.972Z,11.80
2022-10-21T07:01:33.383Z,11.37
2022-10-21T07:04:06.012Z,15.00
2022-10-21T07:09:09.346Z,12.07
2022-10-21T07:11:37.936Z,12.60
2022-10-21T07:14:05.975Z,15.07
2022-10-21T07:16:36.164Z,13.90
2022-10-21T07:19:06.223Z,13.50
2022-10-21T07:21:34.527Z,9.73
2022-10-21T07:24:02.853Z,7.30
2022-10-21T07:26:34.028Z,8.17
2022-10-21T07:29:02.765Z,6.60
2022-10-21T07:31:34.428Z,5.63
2022-10-21T07:36:40.686Z,3.93
2022-10-21T07:39:12.317Z,3.53
2022-10-21T07:41:44.103Z,3.67
2022-10-21T07:44:12.761Z,3.63
2022-10-21T07:46:42.808Z,2.87
2022-10-21T07:49:12.087Z,3.53
2022-10-21T07:51:42.183Z,3.57
2022-10-21T07:54:11.112Z,3.50
2022-10-21T07:56:42.223Z,4.20
2022-10-21T07:59:13.060Z,4.03
2022-10-21T08:01:45.733Z,3.40
2022-10-21T08:04:16.110Z,3.93
2022-10-21T08:06:46.578Z,3.60
2022-10-21T08:09:16.001Z,2.80
2022-10-21T08:11:44.383Z,3.60
2022-10-21T08:14:12.854Z,3.97
2022-10-21T08:16:41.534Z,3.40
2022-10-21T08:19:10.365Z,3.53
2022-10-21T08:21:39.061Z,3.10
2022-10-21T08:24:08.559Z,3.20
2022-10-21T08:26:36.540Z,3.17
2022-10-21T08:29:05.569Z,2.87
2022-10-21T08:31:33.829Z,2.53
2022-10-21T08:34:01.995Z,2.63
2022-10-21T08:36:30.128Z,2.40
2022-10-21T08:38:59.475Z,2.50
2022-10-21T08:41:51.197Z,2.40
2022-10-21T08:44:31.225Z,2.60
2022-10-21T08:49:49.004Z,1.73
2022-10-21T08:52:21.034Z,2.43
2022-10-21T08:54:55.818Z,2.27
2022-10-21T08:57:25.169Z,2.40
2022-10-21T08:59:53.280Z,2.57
2022-10-21T09:02:41.833Z,2.40
2022-10-21T09:05:29.563Z,2.57
2022-10-21T09:08:14.367Z,1.70
2022-10-21T09:10:59.738Z,2.27
2022-10-21T09:13:52.085Z,2.63
2022-10-21T09:16:32.423Z,2.43
2022-10-21T09:19:15.464Z,3.00
2022-10-21T09:22:16.388Z,4.83
2022-10-21T09:24:57.041Z,4.27
2022-10-21T09:27:32.189Z,4.23
2022-10-21T09:30:18.971Z,4.40
2022-10-21T09:32:50.972Z,4.93
2022-10-21T09:35:34.347Z,5.57
2022-10-21T09:38:08.132Z,5.00
2022-10-21T09:40:39.726Z,4.23
2022-10-21T09:43:18.488Z,4.70
2022-10-21T09:45:49.324Z,4.73
2022-10-21T09:48:33.797Z,4.83
2022-10-21T09:51:15.825Z,6.30
2022-10-21T09:53:53.876Z,6.43
2022-10-21T09:56:27.092Z,6.37
2022-10-21T09:59:07.796Z,8.07
2022-10-21T10:01:39.854Z,6.47
2022-10-21T10:04:21.205Z,6.00
2022-10-21T10:06:49.684Z,7.00
2022-10-21T10:09:26.792Z,7.97
2022-10-21T10:11:58.737Z,6.40
2022-10-21T10:14:33.625Z,5.97
2022-10-21T10:17:30.298Z,5.90
2022-10-21T10:20:18.666Z,6.50
2022-10-21T10:22:47.947Z,4.60
2022-10-21T10:25:24.266Z,4.90
2022-10-21T10:27:55.519Z,3.60
2022-10-21T10:30:25.027Z,3.87
2022-10-21T10:32:56.092Z,3.40
2022-10-21T10:35:30.943Z,4.13
2022-10-21T10:38:02.141Z,3.47
2022-10-21T10:40:39.355Z,3.40
2022-10-21T10:43:13.850Z,4.00
2022-10-21T10:45:50.046Z,3.03
2022-10-21T10:48:24.517Z,2.30
2022-10-21T10:50:55.816Z,2.67
2022-10-21T10:53:32.884Z,2.50
2022-10-21T10:56:15.992Z,4.20
2022-10-21T10:58:51.632Z,3.00
2022-10-21T11:01:28.148Z,3.70
2022-10-21T11:04:04.786Z,4.10
2022-10-21T11:06:42.340Z,3.27
2022-10-21T11:09:10.525Z,3.70
2022-10-21T11:11:41.608Z,3.70
2022-10-21T11:14:18.894Z,4.13
2022-10-21T11:17:09.485Z,3.67
2022-10-21T11:19:52.621Z,4.63
2022-10-21T11:22:37.849Z,3.97
2022-10-21T11:25:19.920Z,3.43
2022-10-21T11:28:11.144Z,4.17
2022-10-21T11:31:00.467Z,3.60
2022-10-21T11:33:39.825Z,2.90
2022-10-21T11:36:20.083Z,3.10
2022-10-21T11:39:33.738Z,3.00
2022-10-21T11:42:12.250Z,2.87
2022-10-21T11:44:56.965Z,3.20
2022-10-21T11:47:33.571Z,2.63
2022-10-21T11:50:14.500Z,3.00
2022-10-21T11:53:02.299Z,2.67
2022-10-21T11:55:40.311Z,2.37
2022-10-21T11:58:27.644Z,2.27
2022-10-21T12:01:09.048Z,2.73
2022-10-21T12:03:56.443Z,2.33
2022-10-21T12:06:34.216Z,2.00
2022-10-21T12:09:06.793Z,2.03
2022-10-21T12:11:42.073Z,1.73
2022-10-21T12:14:30.296Z,1.57
2022-10-21T12:17:04.226Z,2.47
2022-10-21T12:19:32.995Z,1.60
2022-10-21T12:22:01.633Z,2.00
2022-10-21T12:24:45.055Z,1.87
2022-10-21T12:27:24.943Z,1.87
2022-10-21T12:30:06.385Z,1.77
2022-10-21T12:32:46.200Z,1.63
2022-10-21T12:35:17.628Z,2.33
2022-10-21T12:38:06.163Z,1.37
2022-10-21T12:40:40.394Z,1.40
2022-10-21T12:43:23.519Z,1.63
2022-10-21T12:46:07.637Z,1.73
2022-10-21T12:48:40.808Z,1.40
2022-10-21T12:51:21.169Z,1.50
2022-10-21T12:56:35.177Z,1.20
2022-10-21T12:59:07.067Z,1.50
2022-10-21T13:01:43.430Z,1.43
2022-10-21T13:04:47.412Z,1.40
2022-10-21T13:07:38.276Z,1.83
2022-10-21T13:10:36.158Z,1.63
2022-10-21T13:13:33.315Z,1.87
2022-10-21T13:16:34.155Z,1.53
2022-10-21T13:19:03.335Z,2.13
2022-10-21T13:21:39.999Z,1.60
2022-10-21T13:24:25.539Z,1.53
2022-10-21T13:26:57.181Z,1.53
2022-10-21T13:29:45.448Z,1.50
2022-10-21T13:32:25.214Z,1.80
2022-10-21T13:35:33.215Z,1.87
2022-10-21T13:38:06.465Z,2.17
2022-10-21T13:40:46.194Z,1.50
2022-10-21T13:43:17.110Z,1.97
2022-10-21T13:45:49.783Z,2.00
2022-10-21T13:48:22.097Z,1.67
2022-10-21T13:50:53.094Z,1.70
2022-10-21T13:53:29.793Z,1.90
2022-10-21T13:56:02.473Z,1.57
2022-10-21T13:58:35.999Z,1.33
2022-10-21T14:01:13.969Z,1.60
2022-10-21T14:03:43.976Z,2.90
2022-10-21T14:06:19.365Z,1.63
2022-10-21T14:08:48.999Z,1.63
2022-10-21T14:11:19.772Z,1.90
2022-10-21T14:13:49.577Z,1.70
2022-10-21T14:16:27.792Z,2.00
2022-10-21T14:18:57.480Z,1.60
2022-10-21T14:21:29.014Z,2.03
2022-10-21T14:23:57.741Z,1.97
2022-10-21T14:26:30.890Z,1.97
2022-10-21T14:29:01.694Z,1.90
2022-10-21T14:31:30.295Z,1.70
2022-10-21T14:33:59.661Z,2.13
2022-10-21T14:36:28.662Z,1.80
2022-10-21T14:39:01.380Z,2.37
2022-10-21T14:41:35.498Z,2.43
2022-10-21T14:44:13.189Z,2.70
2022-10-21T14:46:44.746Z,2.00
2022-10-21T14:49:25.809Z,1.70
2022-10-21T14:52:01.905Z,1.70
2022-10-21T14:54:42.463Z,1.37
2022-10-21T14:57:35.222Z,1.80
2022-10-21T15:00:06.869Z,1.40
2022-10-21T15:02:37.859Z,1.60
2022-10-21T15:05:38.047Z,2.30
2022-10-21T15:08:32.180Z,2.40
2022-10-21T15:11:38.448Z,1.53
2022-10-21T15:14:31.783Z,1.83
2022-10-21T15:17:04.859Z,1.50
2022-10-21T15:19:46.340Z,2.07
2022-10-21T15:22:26.439Z,1.97
2022-10-21T15:24:59.423Z,1.50
2022-10-21T15:27:37.049Z,2.00
2022-10-21T15:30:07.739Z,2.30
2022-10-21T15:32:35.699Z,2.07
2022-10-21T15:35:08.249Z,3.70
2022-10-21T15:37:37.886Z,2.20
2022-10-21T15:40:07.306Z,2.10
2022-10-21T15:42:35.304Z,2.00
2022-10-21T15:45:03.459Z,1.80
2022-10-21T15:47:31.375Z,2.00
2022-10-21T15:49:59.351Z,1.93
2022-10-21T15:52:27.419Z,1.40
2022-10-21T15:54:56.779Z,1.80
2022-10-21T15:57:24.808Z,2.37
2022-10-21T15:59:52.799Z,2.13
2022-10-21T16:02:20.790Z,1.80
2022-10-21T16:04:52.877Z,2.67
2022-10-21T16:07:23.712Z,2.00
2022-10-21T16:09:51.691Z,2.13
2022-10-21T16:12:22.750Z,4.20
2022-10-21T16:14:50.916Z,3.17
2022-10-21T16:17:19.186Z,3.40
2022-10-21T16:19:47.273Z,2.20
2022-10-21T16:22:19.879Z,1.73
2022-10-21T16:24:47.954Z,3.97
2022-10-21T16:27:31.323Z,3.47
2022-10-21T16:30:16.975Z,2.23
2022-10-21T16:32:45.069Z,4.50
2022-10-21T16:35:15.227Z,2.20
2022-10-21T16:37:44.107Z,3.30
2022-10-21T16:40:19.867Z,2.00
2022-10-21T16:42:48.574Z,3.30
2022-10-21T16:45:19.736Z,3.27
2022-10-21T16:47:52.709Z,3.10
2022-10-21T16:50:24.123Z,2.70
2022-10-21T16:52:52.096Z,2.77
2022-10-21T16:55:21.087Z,3.43
2022-10-21T16:57:51.921Z,2.33
2022-10-21T17:00:21.424Z,2.40
2022-10-21T17:02:51.414Z,2.60
2022-10-21T17:05:20.077Z,2.83
2022-10-21T17:07:48.754Z,2.93
2022-10-21T17:10:17.671Z,1.80
2022-10-21T17:12:45.636Z,1.90
2022-10-21T17:15:16.925Z,2.60
2022-10-21T17:17:46.207Z,2.43
2022-10-21T17:20:14.169Z,1.90
2022-10-21T17:22:42.139Z,2.67
2022-10-21T17:25:12.789Z,2.67
2022-10-21T17:27:43.893Z,3.30
2022-10-21T17:30:13.128Z,2.20
2022-10-21T17:35:19.279Z,2.90
2022-10-21T17:37:47.820Z,2.90
2022-10-21T17:40:18.558Z,2.23
2022-10-21T17:42:46.586Z,2.10
2022-10-21T17:45:15.839Z,2.20
2022-10-21T17:47:44.478Z,2.67
2022-10-21T17:50:13.473Z,2.37
2022-10-21T17:52:43.519Z,2.40
2022-10-21T17:55:11.554Z,5.53
2022-10-21T17:57:39.559Z,4.40
2022-10-21T18:00:10.729Z,3.80
2022-10-21T18:02:39.326Z,2.80
2022-10-21T18:05:09.925Z,2.30
2022-10-21T18:07:38.534Z,2.13
2022-10-21T18:10:10.279Z,2.50
2022-10-21T18:12:38.469Z,2.40
2022-10-21T18:15:07.868Z,2.40
2022-10-21T18:17:39.887Z,2.17
2022-10-21T18:20:10.269Z,2.27
2022-10-21T18:22:38.500Z,2.30
2022-10-21T18:25:09.208Z,2.93
2022-10-21T18:27:39.993Z,3.10
2022-10-21T18:30:09.972Z,2.47
2022-10-21T18:32:39.043Z,2.13
2022-10-21T18:35:09.242Z,2.07
2022-10-21T18:37:37.732Z,2.53
2022-10-21T18:40:10.101Z,2.87
2022-10-21T18:42:38.100Z,3.50
2022-10-21T18:45:07.451Z,3.03
2022-10-21T18:47:35.440Z,5.03
2022-10-21T18:50:03.400Z,3.80
2022-10-21T18:52:31.335Z,3.30
2022-10-21T18:54:59.856Z,2.47
2022-10-21T18:57:29.204Z,2.73
2022-10-21T18:59:57.177Z,2.50
2022-10-21T19:02:25.847Z,2.30
2022-10-21T19:04:55.960Z,2.30
2022-10-21T19:07:26.433Z,2.83
2022-10-21T19:09:54.402Z,3.17
2022-10-21T19:12:23.591Z,5.40
2022-10-21T19:14:53.133Z,6.40
2022-10-21T19:17:21.087Z,3.93
2022-10-21T19:19:49.043Z,2.93
2022-10-21T19:22:17.326Z,3.87
2022-10-21T19:24:45.385Z,3.10
2022-10-21T19:27:13.574Z,3.17
2022-10-21T19:29:43.286Z,2.40
2022-10-21T19:32:13.259Z,3.87
2022-10-21T19:34:41.321Z,3.23
2022-10-21T19:37:10.426Z,3.07
2022-10-21T19:39:38.460Z,2.80
2022-10-21T19:42:06.720Z,4.07
2022-10-21T19:44:34.884Z,4.73
2022-10-21T19:47:02.872Z,3.90
2022-10-21T19:49:32.886Z,3.90
2022-10-21T19:52:00.899Z,3.60
2022-10-21T19:54:29.008Z,3.47
2022-10-21T19:56:56.970Z,3.60
2022-10-21T19:59:24.995Z,3.87
2022-10-21T20:01:53.067Z,3.50
2022-10-21T20:04:21.074Z,3.77
2022-10-21T20:06:50.463Z,3.40
2022-10-21T20:09:18.448Z,3.73
2022-10-21T20:11:46.404Z,4.50
2022-10-21T20:14:15.020Z,3.53
2022-10-21T20:16:43.785Z,3.90
2022-10-21T20:19:13.427Z,3.03
2022-10-21T20:21:42.239Z,4.63
2022-10-21T20:24:15.115Z,3.37
2022-10-21T20:26:44.332Z,3.90
2022-10-21T20:29:13.235Z,3.13
2022-10-21T20:31:41.227Z,3.57
2022-10-21T20:34:09.266Z,4.00
2022-10-21T20:36:37.258Z,2.73
2022-10-21T20:39:05.883Z,3.43
2022-10-21T20:41:38.555Z,4.20
2022-10-21T20:44:09.783Z,4.10
2022-10-21T20:46:37.964Z,4.70
2022-10-21T20:49:07.856Z,3.50
2022-10-21T20:51:38.146Z,3.73
2022-10-21T20:54:08.706Z,3.60
2022-10-21T20:56:40.546Z,2.77
2022-10-21T20:59:11.460Z,2.70
2022-10-21T21:01:42.065Z,3.83
2022-10-21T21:04:14.534Z,3.30
2022-10-21T21:06:44.826Z,3.60
2022-10-21T21:09:37.676Z,4.00
2022-10-21T21:12:05.108Z,3.73
2022-10-21T21:14:33.534Z,3.10
2022-10-21T21:17:01.565Z,4.10
2022-10-21T21:19:29.606Z,4.97
2022-10-21T21:21:57.716Z,4.23
2022-10-21T21:24:25.725Z,3.53
2022-10-21T21:26:53.735Z,4.13
2022-10-21T21:29:24.072Z,5.77
2022-10-21T21:31:52.214Z,5.00
2022-10-21T21:34:20.216Z,6.30
2022-10-21T21:36:48.282Z,5.83
2022-10-21T21:39:16.369Z,7.23
2022-10-21T21:41:44.417Z,4.80
2022-10-21T21:44:12.410Z,4.20
2022-10-21T21:46:41.772Z,4.20
2022-10-21T21:49:09.962Z,3.83
2022-10-21T21:51:38.071Z,3.93
2022-10-21T21:54:07.819Z,4.77
2022-10-21T21:56:35.907Z,6.47
2022-10-21T21:59:04.011Z,4.70
2022-10-21T22:01:32.096Z,6.50
2022-10-21T22:04:02.098Z,5.17
2022-10-21T22:06:34.169Z,4.53
2022-10-21T22:09:03.301Z,6.00
2022-10-21T22:11:33.449Z,6.30
2022-10-21T22:14:01.633Z,6.43
2022-10-21T22:16:30.885Z,5.63
2022-10-21T22:19:01.702Z,6.43
2022-10-21T22:21:31.910Z,5.40
2022-10-21T22:24:00.472Z,5.97
2022-10-21T22:26:29.753Z,4.57
2022-10-21T22:28:57.710Z,6.70
2022-10-21T22:31:29.480Z,5.27
2022-10-21T22:34:00.292Z,6.97
2022-10-21T22:36:29.993Z,6.20
2022-10-21T22:38:58.470Z,5.93
2022-10-21T22:41:27.044Z,5.83
2022-10-21T22:43:55.008Z,6.30
2022-10-21T22:46:34.170Z,6.20
2022-10-21T22:49:04.152Z,6.50
2022-10-21T22:51:34.315Z,6.47
2022-10-21T22:54:02.306Z,6.60
2022-10-21T22:56:30.339Z,5.33
2022-10-21T22:58:58.395Z,5.83
2022-10-21T23:01:30.383Z,6.30
2022-10-21T23:04:02.407Z,6.33
2022-10-21T23:06:30.934Z,5.83
2022-10-21T23:09:00.684Z,5.83
2022-10-21T23:11:28.865Z,6.07
2022-10-21T23:14:03.056Z,6.40
2022-10-21T23:16:36.075Z,6.37
2022-10-21T23:19:04.475Z,6.07
2022-10-21T23:21:32.567Z,6.83
2022-10-21T23:24:01.870Z,5.90
2022-10-21T23:26:29.906Z,7.53
2022-10-21T23:28:57.911Z,6.23
2022-10-21T23:31:25.913Z,7.60
2022-10-21T23:33:53.893Z,6.53
2022-10-21T23:36:21.903Z,6.60
2022-10-21T23:38:49.834Z,6.67
2022-10-21T23:41:19.115Z,7.37
2022-10-21T23:43:47.109Z,5.50
2022-10-21T23:46:15.328Z,6.77
2022-10-21T23:48:43.377Z,6.53
2022-10-21T23:51:11.456Z,8.80
2022-10-21T23:53:39.550Z,6.80
2022-10-21T23:56:08.876Z,7.07
2022-10-21T23:58:38.147Z,7.00
